LHBPLHSN

Guest
Details From LHBP - Ferihegy (Budapest)
To LHSN - SZOLNOK
Flight Number -
Tags generated
Created
Modified
Stats Distance 44 nm / 82 km
Max Altitude 2,900 ft / 884 m
Waypoints 3
Social Downloads 0
Likes 0
Share VATSIM

Download

Looking for another format? Having issues loading an existing format? Contact us
Advertisement - Login to hide

Notes

Basic altitude profile: - Ascent Rate: 2500ft/min - Ascent Speed: 250kts - Cruise Altitude: 35000ft - Cruise Speed: 420kts - Descent Rate: 1500ft/min - Descent Speed: 250kts Options: - Use NATs: yes - Use PACOTS: yes - Use low airways: yes - Use high airways: no

Route

LHBP ABONY LHSN

ID Type Via Altitude Latitude Longitude Leg Dist Tot Dist Heading (true) Name
O LHBP APT - 0 ft / 0 m 47.43529˚ 19.26579˚ - 0 nm - Ferihegy (Budapest)
ABONY FIX - 2,900 ft / 884 m 47.27084˚ 19.97904˚ 30 nm 30 nm 109° / 109° -
O LHSN APT - 0 ft / 0 m 47.12286˚ 20.23550˚ 13 nm 44 nm 130° / 130° SZOLNOK

Altitude Profile

Advertisement - Login to hide

LHBP

Details ICAO LHBP (BUD)
Name Ferihegy (Budapest)
Region Hungary
Timezone Europe/Budapest (UTC+2.0)
Stats Elevation 495 ft / 151 m (AMSL)
Location 47.435292° 19.265792°
Runways 3
Magnetic Variation 4.814° E

METAR

LHBP 211130Z 05004KT CAVOK 22/10 Q1017 NOSIG

Decode

TAF

TAF LHBP 210515Z 2106/2206 35005KT CAVOK BECMG 2107/2109 07012KT PROB40 TEMPO 2112/2124 VRB15G30KT 4500 TSRA SHRA SCT050CB SCT070 BECMG 2115/2118 07005KT TEMPO 2200/2206 VRB15G25KT 4500 TSRA SHRA SCT045CB BKN060

Decode

Departure Runways

ID Width Length Bearing (true) Bearing (mag) Surface Threshold Offset Overrun Length
13 250 ft / 76 m 6,000 ft / 1,829 m 132.54° 127.73° Unknown 0 ft / 0 m 0 ft / 0 m
13L 196 ft / 60 m 12,487 ft / 3,806 m 132.54° 127.73° Asphalt 0 ft / 0 m 200 ft / 61 m
13R 196 ft / 60 m 10,145 ft / 3,092 m 132.49° 127.68° Asphalt 0 ft / 0 m 197 ft / 60 m
31 250 ft / 76 m 6,000 ft / 1,829 m 312.55° 307.74° Unknown 0 ft / 0 m 0 ft / 0 m
31L 196 ft / 60 m 10,145 ft / 3,092 m 312.51° 307.70° Asphalt 0 ft / 0 m 197 ft / 60 m
31R 196 ft / 60 m 12,487 ft / 3,806 m 312.56° 307.75° Asphalt 0 ft / 0 m 197 ft / 60 m

LHSN

Details ICAO LHSN
Name SZOLNOK
Region Hungary
Timezone Europe/Budapest (UTC+2.0)
Stats Elevation 322 ft / 98 m (AMSL)
Location 47.122859° 20.235500°
Runways 1
Magnetic Variation 4.973° E

METAR

LHSN 211115Z 05006KT 010V100 9999 FEW042TCU SCT050 23/12 Q1017 NOSIG RMK BLU

Decode

TAF

Not found

Destination Runways

ID Width Length Bearing (true) Bearing (mag) Surface Threshold Offset Overrun Length
02 229 ft / 70 m 6,565 ft / 2,001 m 20.94° 15.97° Asphalt 0 ft / 0 m 0 ft / 0 m
20 229 ft / 70 m 6,565 ft / 2,001 m 200.94° 195.97° Asphalt 0 ft / 0 m 0 ft / 0 m

Popular Alternatives